Melbourne International Airport
YMML : now visible

Airfield :











YOU CAN JOIN US ON...

 
LOGIN :

Register | Disclaimer

   EN    FR    IT 

 









Legend :    VFR   Marginal VFR   IFR   Intensive IFR   Very Intensive IFR
Visi :
Ceiling :
>= 8 km
>= 3000ft
5 to 8 km
1000 to 3000 ft
1500m to 5 km
500 to 1000 ft
800 to 1500m
200 to 500 ft
< 800m
< 200 ft
Symbols :   Thunderstorms  Fog  Heavy snow  Heavy precipitations  Wind > 20 kt






- Airport Elevation : 434 ft
- IATA code : MEL


YMML - Melbourne International

CURRENT METAR :
  • 191600Z 35013KT 9999 FEW030 SCT063 BKN080 11/08 Q1014

EXPIRED METARs :
  • 191530Z 34014KT 9999 FEW030 SCT061 BKN100 11/07 Q1014
  • 191501Z 35015G25KT 9999 FEW030 SCT074 BKN090 11/07 Q1014
  • 191430Z 35013KT 9999 FEW030 SCT056 BKN090 11/07 Q1014
  • 191400Z 36012KT 9999 FEW030 BKN090 11/07 Q1014
  • 191330Z 36013KT 9999 FEW030 BKN090 BKN190 11/07 Q1014

TAF TAF YMML
Valid from the 19 at 15:00 until the 20 at 18:00 UTC


191412Z 1915/2018 34014KT 9999 -RA SCT050
BECMG 1919/1920 24008KT 9999 -SHRA BKN015
FM192200 22010KT 9999 -SHRA FEW018 BKN025
FM200200 18010KT 9999 -SHRA BKN035
FM200700 18010KT 9999 NSW BKN040
FM201200 35006KT 9999 BKN045
TEMPO 1919/1922 4000 SHRA BKN010 INTER 1922/2000 5000 SHRA SCT015
YMMM FIR / Oceania



MET'MAP, your aeronautical weather chart ! - Copyright ORBIFLY December 2007 - Disclaimer

ORBIFLY MET'MAP TEAM :

Programming & Development : Alexandra Zaïnal
Original concept : Baudouin d'Aumeries
Technical & hardware support : Manuel Goepfert
Assistance : Marc-Olivier Méhu




SOURCES & CREDITS :

   NOAA       Earth
Advisory